sensor_id;sensor_type;location;lat;lon;timestamp;pressure;altitude;pressure_sealevel;temperature;humidity
54546;BME280;40444;45.184;9.850;2022-12-11T00:01:12;99140.44;;;3.77;100.00
54546;BME280;40444;45.184;9.850;2022-12-11T00:03:41;99135.13;;;3.77;100.00
54546;BME280;40444;45.184;9.850;2022-12-11T00:06:13;99130.56;;;3.79;100.00
54546;BME280;40444;45.184;9.850;2022-12-11T00:08:42;99126.78;;;3.82;100.00
54546;BME280;40444;45.184;9.850;2022-12-11T00:11:14;99127.63;;;3.83;100.00
54546;BME280;40444;45.184;9.850;2022-12-11T00:13:43;99124.88;;;3.84;100.00
54546;BME280;40444;45.184;9.850;2022-12-11T00:16:11;99125.06;;;3.71;100.00
54546;BME280;40444;45.184;9.850;2022-12-11T00:18:40;99129.91;;;3.66;100.00
54546;BME280;40444;45.184;9.850;2022-12-11T00:21:12;99134.75;;;3.40;100.00
54546;BME280;40444;45.184;9.850;2022-12-11T00:23:40;99132.34;;;3.37;100.00
54546;BME280;40444;45.184;9.850;2022-12-11T00:26:12;99120.78;;;3.38;100.00
54546;BME280;40444;45.184;9.850;2022-12-11T00:28:42;99123.72;;;3.35;100.00
54546;BME280;40444;45.184;9.850;2022-12-11T00:31:16;99123.81;;;3.34;100.00
54546;BME280;40444;45.184;9.850;2022-12-11T00:33:45;99118.13;;;3.38;100.00
54546;BME280;40444;45.184;9.850;2022-12-11T00:36:19;99113.22;;;3.34;100.00
54546;BME280;40444;45.184;9.850;2022-12-11T00:38:48;99117.81;;;3.32;100.00
54546;BME280;40444;45.184;9.850;2022-12-11T00:41:17;99109.66;;;3.23;100.00
54546;BME280;40444;45.184;9.850;2022-12-11T00:43:46;99118.28;;;3.04;100.00
54546;BME280;40444;45.184;9.850;2022-12-11T00:46:14;99124.00;;;2.89;100.00
54546;BME280;40444;45.184;9.850;2022-12-11T00:48:43;99132.22;;;2.74;100.00
54546;BME280;40444;45.184;9.850;2022-12-11T00:51:13;99142.09;;;2.72;100.00
54546;BME280;40444;45.184;9.850;2022-12-11T00:53:41;99136.78;;;2.72;100.00
54546;BME280;40444;45.184;9.850;2022-12-11T00:56:17;99140.84;;;2.76;100.00
54546;BME280;40444;45.184;9.850;2022-12-11T00:58:46;99143.38;;;2.67;100.00
54546;BME280;40444;45.184;9.850;2022-12-11T01:01:21;99140.81;;;2.33;100.00
54546;BME280;40444;45.184;9.850;2022-12-11T01:03:52;99141.63;;;2.45;100.00
54546;BME280;40444;45.184;9.850;2022-12-11T01:06:23;99141.03;;;2.52;100.00
54546;BME280;40444;45.184;9.850;2022-12-11T01:08:53;99143.66;;;2.64;100.00
54546;BME280;40444;45.184;9.850;2022-12-11T01:11:42;99151.78;;;2.72;100.00
54546;BME280;40444;45.184;9.850;2022-12-11T01:14:11;99153.84;;;2.79;100.00
54546;BME280;40444;45.184;9.850;2022-12-11T01:16:40;99157.78;;;2.85;100.00
54546;BME280;40444;45.184;9.850;2022-12-11T01:19:08;99170.53;;;2.91;100.00
54546;BME280;40444;45.184;9.850;2022-12-11T01:21:37;99166.06;;;2.92;100.00
54546;BME280;40444;45.184;9.850;2022-12-11T01:24:06;99165.09;;;2.93;100.00
54546;BME280;40444;45.184;9.850;2022-12-11T01:26:34;99178.34;;;2.93;100.00
54546;BME280;40444;45.184;9.850;2022-12-11T01:29:02;99164.97;;;2.94;100.00
54546;BME280;40444;45.184;9.850;2022-12-11T01:31:31;99169.44;;;2.94;100.00
54546;BME280;40444;45.184;9.850;2022-12-11T01:34:00;99177.50;;;2.92;100.00
54546;BME280;40444;45.184;9.850;2022-12-11T01:36:29;99167.88;;;2.91;100.00
54546;BME280;40444;45.184;9.850;2022-12-11T01:38:58;99172.34;;;2.91;100.00
54546;BME280;40444;45.184;9.850;2022-12-11T01:41:26;99173.28;;;2.90;100.00
54546;BME280;40444;45.184;9.850;2022-12-11T01:44:01;99163.19;;;2.84;100.00
54546;BME280;40444;45.184;9.850;2022-12-11T01:46:32;99166.09;;;2.81;100.00
54546;BME280;40444;45.184;9.850;2022-12-11T01:49:05;99157.81;;;2.74;100.00
54546;BME280;40444;45.184;9.850;2022-12-11T01:51:42;99169.75;;;2.68;100.00
54546;BME280;40444;45.184;9.850;2022-12-11T01:54:14;99176.81;;;2.68;100.00
54546;BME280;40444;45.184;9.850;2022-12-11T01:56:45;99173.31;;;2.67;100.00
54546;BME280;40444;45.184;9.850;2022-12-11T01:59:19;99183.78;;;2.58;100.00
54546;BME280;40444;45.184;9.850;2022-12-11T02:01:57;99173.47;;;2.43;100.00
54546;BME280;40444;45.184;9.850;2022-12-11T02:04:27;99167.56;;;2.40;100.00
54546;BME280;40444;45.184;9.850;2022-12-11T02:06:56;99171.91;;;2.41;100.00
54546;BME280;40444;45.184;9.850;2022-12-11T02:09:26;99173.69;;;2.40;100.00
54546;BME280;40444;45.184;9.850;2022-12-11T02:17:40;99184.28;;;2.40;100.00
54546;BME280;40444;45.184;9.850;2022-12-11T02:20:32;99195.81;;;2.39;100.00
54546;BME280;40444;45.184;9.850;2022-12-11T02:28:45;99173.34;;;2.45;100.00
54546;BME280;40444;45.184;9.850;2022-12-11T02:31:34;99169.84;;;2.44;100.00
54546;BME280;40444;45.184;9.850;2022-12-11T02:34:09;99174.91;;;2.47;100.00
54546;BME280;40444;45.184;9.850;2022-12-11T02:36:43;99183.31;;;2.52;100.00
54546;BME280;40444;45.184;9.850;2022-12-11T02:39:13;99177.66;;;2.57;100.00
54546;BME280;40444;45.184;9.850;2022-12-11T02:41:47;99182.72;;;2.60;100.00
54546;BME280;40444;45.184;9.850;2022-12-11T02:44:23;99185.09;;;2.63;100.00
54546;BME280;40444;45.184;9.850;2022-12-11T02:46:53;99188.34;;;2.67;100.00
54546;BME280;40444;45.184;9.850;2022-12-11T02:49:23;99191.00;;;2.67;100.00
54546;BME280;40444;45.184;9.850;2022-12-11T02:51:53;99191.00;;;2.67;100.00
54546;BME280;40444;45.184;9.850;2022-12-11T02:54:27;99197.97;;;2.68;100.00
54546;BME280;40444;45.184;9.850;2022-12-11T02:57:05;99203.41;;;2.55;100.00
54546;BME280;40444;45.184;9.850;2022-12-11T02:59:38;99199.53;;;2.48;100.00
54546;BME280;40444;45.184;9.850;2022-12-11T03:02:08;99195.47;;;2.44;100.00
54546;BME280;40444;45.184;9.850;2022-12-11T03:04:38;99193.31;;;2.38;100.00
54546;BME280;40444;45.184;9.850;2022-12-11T03:07:12;99195.13;;;2.37;100.00
54546;BME280;40444;45.184;9.850;2022-12-11T03:09:45;99204.09;;;2.35;100.00
54546;BME280;40444;45.184;9.850;2022-12-11T03:12:27;99205.78;;;2.36;100.00
54546;BME280;40444;45.184;9.850;2022-12-11T03:15:01;99196.78;;;2.38;100.00
54546;BME280;40444;45.184;9.850;2022-12-11T03:23:03;99201.94;;;2.40;100.00
54546;BME280;40444;45.184;9.850;2022-12-11T03:25:45;99194.72;;;2.31;100.00
54546;BME280;40444;45.184;9.850;2022-12-11T03:28:25;99202.78;;;2.07;100.00
54546;BME280;40444;45.184;9.850;2022-12-11T03:30:57;99202.59;;;1.86;100.00
54546;BME280;40444;45.184;9.850;2022-12-11T03:33:33;99210.31;;;1.65;100.00
54546;BME280;40444;45.184;9.850;2022-12-11T03:36:10;99207.31;;;1.58;100.00
54546;BME280;40444;45.184;9.850;2022-12-11T03:38:49;99217.91;;;1.69;100.00
54546;BME280;40444;45.184;9.850;2022-12-11T03:41:20;99211.94;;;1.78;100.00
54546;BME280;40444;45.184;9.850;2022-12-11T03:43:52;99221.81;;;1.88;100.00
54546;BME280;40444;45.184;9.850;2022-12-11T03:46:27;99224.97;;;1.93;100.00
54546;BME280;40444;45.184;9.850;2022-12-11T03:49:04;99222.06;;;1.96;100.00
54546;BME280;40444;45.184;9.850;2022-12-11T03:51:34;99219.19;;;1.88;100.00
54546;BME280;40444;45.184;9.850;2022-12-11T03:54:03;99228.38;;;1.82;100.00
54546;BME280;40444;45.184;9.850;2022-12-11T03:56:33;99226.97;;;1.89;100.00
54546;BME280;40444;45.184;9.850;2022-12-11T03:59:03;99226.75;;;1.92;100.00
54546;BME280;40444;45.184;9.850;2022-12-11T04:01:31;99233.81;;;1.92;100.00
54546;BME280;40444;45.184;9.850;2022-12-11T04:03:59;99234.22;;;1.98;100.00
54546;BME280;40444;45.184;9.850;2022-12-11T04:06:28;99219.81;;;2.02;100.00
54546;BME280;40444;45.184;9.850;2022-12-11T04:08:56;99224.13;;;2.03;100.00
54546;BME280;40444;45.184;9.850;2022-12-11T04:11:24;99230.88;;;2.08;100.00
54546;BME280;40444;45.184;9.850;2022-12-11T04:14:19;99227.75;;;2.14;100.00
54546;BME280;40444;45.184;9.850;2022-12-11T04:17:06;99210.31;;;2.00;100.00
54546;BME280;40444;45.184;9.850;2022-12-11T04:19:35;99207.03;;;1.96;100.00
54546;BME280;40444;45.184;9.850;2022-12-11T04:22:21;99225.22;;;2.01;100.00
54546;BME280;40444;45.184;9.850;2022-12-11T04:25:08;99228.22;;;2.08;100.00
54546;BME280;40444;45.184;9.850;2022-12-11T04:27:37;99220.56;;;2.16;100.00
54546;BME280;40444;45.184;9.850;2022-12-11T04:30:22;99220.44;;;2.17;100.00
54546;BME280;40444;45.184;9.850;2022-12-11T04:32:57;99216.81;;;2.18;100.00
54546;BME280;40444;45.184;9.850;2022-12-11T04:35:26;99219.31;;;1.97;100.00
54546;BME280;40444;45.184;9.850;2022-12-11T04:37:55;99210.09;;;2.14;100.00
54546;BME280;40444;45.184;9.850;2022-12-11T04:40:24;99201.84;;;2.19;100.00
54546;BME280;40444;45.184;9.850;2022-12-11T04:42:52;99217.06;;;2.26;100.00
54546;BME280;40444;45.184;9.850;2022-12-11T17:15:48;99689.66;;;2.34;100.00
54546;BME280;40444;45.184;9.850;2022-12-11T17:18:18;99689.66;;;2.34;100.00
54546;BME280;40444;45.184;9.850;2022-12-11T17:20:47;99689.22;;;2.40;100.00
54546;BME280;40444;45.184;9.850;2022-12-11T17:23:18;99699.78;;;2.53;100.00
54546;BME280;40444;45.184;9.850;2022-12-11T17:25:49;99698.16;;;2.63;100.00
54546;BME280;40444;45.184;9.850;2022-12-11T17:28:35;99698.47;;;2.71;100.00
54546;BME280;40444;45.184;9.850;2022-12-11T17:31:18;99697.41;;;2.74;100.00
54546;BME280;40444;45.184;9.850;2022-12-11T17:38:35;99709.72;;;2.49;100.00
54546;BME280;40444;45.184;9.850;2022-12-11T17:41:05;99705.19;;;2.39;100.00
54546;BME280;40444;45.184;9.850;2022-12-11T17:43:52;99713.66;;;2.31;100.00
54546;BME280;40444;45.184;9.850;2022-12-11T17:46:27;99708.78;;;2.38;100.00
54546;BME280;40444;45.184;9.850;2022-12-11T17:49:03;99712.59;;;2.46;100.00
54546;BME280;40444;45.184;9.850;2022-12-11T17:51:51;99711.81;;;2.57;100.00
54546;BME280;40444;45.184;9.850;2022-12-11T17:54:44;99715.75;;;2.64;100.00
54546;BME280;40444;45.184;9.850;2022-12-11T17:57:30;99720.59;;;2.70;100.00
54546;BME280;40444;45.184;9.850;2022-12-11T18:00:00;99723.75;;;2.75;100.00
54546;BME280;40444;45.184;9.850;2022-12-11T18:02:44;99713.91;;;2.77;100.00
54546;BME280;40444;45.184;9.850;2022-12-11T18:05:31;99718.97;;;2.81;100.00
54546;BME280;40444;45.184;9.850;2022-12-11T18:08:02;99729.03;;;2.75;100.00
54546;BME280;40444;45.184;9.850;2022-12-11T18:10:55;99728.00;;;2.65;100.00
54546;BME280;40444;45.184;9.850;2022-12-11T18:13:44;99729.69;;;2.53;100.00
54546;BME280;40444;45.184;9.850;2022-12-11T18:16:32;99735.63;;;2.44;100.00
54546;BME280;40444;45.184;9.850;2022-12-11T18:19:17;99737.97;;;2.36;100.00
54546;BME280;40444;45.184;9.850;2022-12-11T18:22:07;99748.34;;;2.26;100.00
54546;BME280;40444;45.184;9.850;2022-12-11T18:24:49;99744.69;;;1.76;100.00
54546;BME280;40444;45.184;9.850;2022-12-11T18:27:39;99753.06;;;1.56;100.00
54546;BME280;40444;45.184;9.850;2022-12-11T18:30:23;99752.09;;;1.44;100.00
54546;BME280;40444;45.184;9.850;2022-12-11T18:32:55;99761.09;;;1.55;100.00
54546;BME280;40444;45.184;9.850;2022-12-11T18:35:30;99761.66;;;1.60;100.00
54546;BME280;40444;45.184;9.850;2022-12-11T18:38:04;99763.44;;;1.59;100.00
54546;BME280;40444;45.184;9.850;2022-12-11T18:40:48;99762.78;;;1.56;100.00
54546;BME280;40444;45.184;9.850;2022-12-11T18:43:24;99765.72;;;1.51;100.00
54546;BME280;40444;45.184;9.850;2022-12-11T18:46:20;99775.09;;;1.42;100.00
54546;BME280;40444;45.184;9.850;2022-12-11T18:49:10;99781.09;;;1.32;100.00
54546;BME280;40444;45.184;9.850;2022-12-11T18:51:59;99779.19;;;1.34;100.00
54546;BME280;40444;45.184;9.850;2022-12-11T18:54:57;99776.41;;;1.49;100.00
54546;BME280;40444;45.184;9.850;2022-12-11T18:57:49;99781.44;;;1.67;100.00
54546;BME280;40444;45.184;9.850;2022-12-11T19:01:39;99786.06;;;1.63;100.00
54546;BME280;40444;45.184;9.850;2022-12-11T19:04:29;99774.19;;;1.83;100.00
54546;BME280;40444;45.184;9.850;2022-12-11T19:07:23;99775.78;;;1.86;100.00
54546;BME280;40444;45.184;9.850;2022-12-11T19:10:08;99781.59;;;1.91;100.00
54546;BME280;40444;45.184;9.850;2022-12-11T19:12:53;99786.88;;;1.91;100.00
54546;BME280;40444;45.184;9.850;2022-12-11T19:15:39;99785.03;;;1.78;100.00
54546;BME280;40444;45.184;9.850;2022-12-11T19:18:24;99797.94;;;1.70;100.00
54546;BME280;40444;45.184;9.850;2022-12-11T19:21:16;99798.41;;;1.63;100.00
54546;BME280;40444;45.184;9.850;2022-12-11T19:24:32;99798.78;;;1.71;100.00
54546;BME280;40444;45.184;9.850;2022-12-11T19:27:12;99805.31;;;1.65;100.00
54546;BME280;40444;45.184;9.850;2022-12-11T19:31:28;99813.66;;;1.45;100.00
54546;BME280;40444;45.184;9.850;2022-12-11T19:40:43;99836.53;;;1.59;100.00
54546;BME280;40444;45.184;9.850;2022-12-11T19:55:38;99848.81;;;1.45;100.00
54546;BME280;40444;45.184;9.850;2022-12-11T20:18:22;99880.91;;;0.96;100.00
54546;BME280;40444;45.184;9.850;2022-12-11T20:21:17;99878.38;;;1.09;100.00
